createdAt,value
2018-09-27T00:00:44.753Z,12.60
2018-09-27T00:01:48.321Z,12.50
2018-09-27T00:02:51.891Z,12.50
2018-09-27T00:03:55.386Z,12.50
2018-09-27T00:04:58.868Z,12.50
2018-09-27T00:06:02.394Z,12.40
2018-09-27T00:07:05.920Z,12.40
2018-09-27T00:08:09.433Z,12.30
2018-09-27T00:09:12.901Z,12.30
2018-09-27T00:10:16.548Z,12.30
2018-09-27T00:11:20.184Z,12.30
2018-09-27T00:12:23.793Z,12.10
2018-09-27T00:13:27.378Z,12.10
2018-09-27T00:14:31.027Z,12.10
2018-09-27T00:15:34.544Z,12.10
2018-09-27T00:16:38.091Z,12.10
2018-09-27T00:17:41.660Z,12.00
2018-09-27T00:18:45.282Z,12.00
2018-09-27T00:19:48.780Z,12.00
2018-09-27T00:20:52.332Z,12.00
2018-09-27T00:21:55.911Z,12.00
2018-09-27T00:22:59.498Z,12.00
2018-09-27T00:24:03.078Z,11.90
2018-09-27T00:25:06.704Z,11.90
2018-09-27T00:26:10.266Z,11.90
2018-09-27T00:27:13.819Z,11.80
2018-09-27T00:28:17.375Z,11.80
2018-09-27T00:29:20.932Z,11.80
2018-09-27T00:30:24.479Z,11.70
2018-09-27T00:31:28.139Z,11.70
2018-09-27T00:32:31.711Z,11.70
2018-09-27T00:33:35.323Z,11.70
2018-09-27T00:34:39.005Z,11.70
2018-09-27T00:35:42.599Z,11.60
2018-09-27T00:36:46.220Z,11.60
2018-09-27T00:37:49.830Z,11.70
2018-09-27T00:38:53.390Z,11.70
2018-09-27T00:39:57.073Z,11.70
2018-09-27T00:41:00.679Z,11.70
2018-09-27T00:42:04.303Z,11.70
2018-09-27T00:43:07.839Z,11.80
2018-09-27T00:44:11.517Z,11.80
2018-09-27T00:45:15.068Z,11.80
2018-09-27T00:46:18.618Z,11.80
2018-09-27T00:47:22.234Z,11.80
2018-09-27T00:48:25.786Z,11.90
2018-09-27T00:49:29.389Z,11.90
2018-09-27T00:50:32.935Z,11.90
2018-09-27T00:51:36.508Z,11.90
2018-09-27T00:52:40.267Z,11.90
2018-09-27T00:53:43.819Z,11.90
2018-09-27T00:54:47.359Z,11.90
2018-09-27T00:55:50.958Z,12.00
2018-09-27T00:56:54.522Z,12.00
2018-09-27T00:57:58.147Z,11.90
2018-09-27T00:59:01.705Z,11.90
2018-09-27T01:00:05.967Z,12.00
2018-09-27T01:01:09.547Z,12.00
2018-09-27T01:02:13.064Z,12.00
2018-09-27T01:03:16.582Z,12.00
2018-09-27T01:04:20.115Z,12.00
2018-09-27T01:05:23.754Z,12.10
2018-09-27T01:06:27.427Z,12.10
2018-09-27T01:07:31.070Z,12.10
2018-09-27T01:08:34.632Z,12.10
2018-09-27T01:09:38.191Z,12.10
2018-09-27T01:10:41.793Z,12.10
2018-09-27T01:11:45.336Z,12.10
2018-09-27T01:12:48.877Z,12.10
2018-09-27T01:13:52.451Z,12.10
2018-09-27T01:14:55.978Z,12.00
2018-09-27T01:15:59.522Z,12.00
2018-09-27T01:17:03.084Z,12.00
2018-09-27T01:18:07.015Z,12.00
2018-09-27T01:19:10.583Z,12.00
2018-09-27T01:20:14.104Z,12.00
2018-09-27T01:21:17.722Z,12.00
2018-09-27T01:22:21.276Z,12.00
2018-09-27T01:23:24.957Z,12.00
2018-09-27T01:24:28.548Z,12.00
2018-09-27T01:25:32.206Z,12.00
2018-09-27T01:26:35.749Z,12.00
2018-09-27T01:27:39.222Z,12.00
2018-09-27T01:28:42.783Z,12.00
2018-09-27T01:29:46.323Z,12.00
2018-09-27T01:30:49.919Z,12.00
2018-09-27T01:31:53.451Z,12.10
2018-09-27T01:32:56.911Z,12.10
2018-09-27T01:34:00.475Z,12.10
2018-09-27T01:35:04.126Z,12.20
2018-09-27T01:36:07.637Z,12.10
2018-09-27T01:37:11.204Z,12.10
2018-09-27T01:38:14.775Z,12.20
2018-09-27T01:39:18.328Z,12.10
2018-09-27T01:40:21.921Z,12.10
2018-09-27T01:41:25.494Z,12.10
2018-09-27T01:42:29.140Z,12.10
2018-09-27T01:43:32.702Z,12.10
2018-09-27T01:44:36.617Z,12.10
2018-09-27T01:45:40.168Z,12.10
2018-09-27T01:46:43.740Z,12.10
2018-09-27T01:47:47.323Z,12.10
2018-09-27T01:48:50.879Z,12.10
2018-09-27T01:49:54.448Z,12.10
2018-09-27T01:50:57.991Z,12.00
2018-09-27T01:52:01.527Z,12.00
2018-09-27T01:53:05.158Z,12.00
2018-09-27T01:54:08.723Z,12.00
2018-09-27T01:55:12.381Z,12.00
2018-09-27T01:56:15.906Z,12.00
2018-09-27T01:57:19.417Z,11.90
2018-09-27T01:58:23.046Z,12.00
2018-09-27T01:59:26.626Z,12.00
2018-09-27T02:00:30.315Z,11.90
2018-09-27T02:01:33.945Z,11.90
2018-09-27T02:02:37.523Z,11.90
2018-09-27T02:03:41.090Z,11.90
2018-09-27T02:04:44.705Z,11.90
2018-09-27T02:05:48.283Z,11.90
2018-09-27T02:06:51.858Z,11.90
2018-09-27T02:07:55.403Z,11.90
2018-09-27T02:08:58.953Z,11.90
2018-09-27T02:10:02.592Z,11.90
2018-09-27T02:11:06.162Z,11.80
2018-09-27T02:12:09.749Z,11.90
2018-09-27T02:13:13.388Z,11.90
2018-09-27T02:14:17.057Z,11.90
2018-09-27T02:15:20.514Z,11.90
2018-09-27T02:16:24.124Z,12.00
2018-09-27T02:17:27.673Z,12.00
2018-09-27T02:18:31.226Z,12.10
2018-09-27T02:19:34.852Z,12.10
2018-09-27T02:20:38.410Z,12.10
2018-09-27T02:21:41.959Z,12.20
2018-09-27T02:22:45.463Z,12.20
2018-09-27T02:23:49.026Z,12.20
2018-09-27T02:24:52.631Z,12.20
2018-09-27T02:25:56.271Z,12.30
2018-09-27T02:26:59.825Z,12.30
2018-09-27T02:28:03.426Z,12.30
2018-09-27T02:29:07.145Z,12.40
2018-09-27T02:30:10.641Z,12.40
2018-09-27T02:31:14.239Z,12.50
2018-09-27T02:32:17.773Z,12.50
2018-09-27T02:33:21.364Z,12.50
2018-09-27T02:34:24.893Z,12.60
2018-09-27T02:35:28.601Z,12.60
2018-09-27T02:36:32.196Z,12.60
2018-09-27T02:37:36.531Z,12.60
2018-09-27T02:38:41.263Z,12.50
2018-09-27T02:39:45.444Z,12.50
2018-09-27T02:40:50.143Z,12.50
2018-09-27T02:41:54.578Z,12.50
2018-09-27T02:42:59.022Z,12.50
2018-09-27T02:44:03.241Z,12.50
2018-09-27T02:45:07.560Z,12.50
2018-09-27T02:46:12.036Z,12.50
2018-09-27T02:47:16.150Z,12.40
2018-09-27T02:48:19.853Z,12.40
2018-09-27T02:49:23.383Z,12.40
2018-09-27T02:50:26.947Z,12.40
2018-09-27T02:51:30.566Z,12.30
2018-09-27T02:52:34.482Z,12.30
2018-09-27T02:53:38.200Z,12.30
2018-09-27T02:54:41.820Z,12.20
2018-09-27T02:55:46.051Z,12.20
2018-09-27T02:56:49.680Z,12.10
2018-09-27T02:57:53.404Z,12.00
2018-09-27T02:58:57.042Z,12.00
2018-09-27T03:00:00.660Z,12.00
2018-09-27T03:01:04.374Z,12.00
2018-09-27T03:02:08.010Z,12.00
2018-09-27T03:03:11.642Z,12.00
2018-09-27T03:04:15.170Z,12.00
2018-09-27T03:05:18.881Z,12.00
2018-09-27T03:06:22.491Z,12.00
2018-09-27T03:07:26.138Z,11.90
2018-09-27T03:08:29.751Z,11.90
2018-09-27T03:09:33.356Z,12.00
2018-09-27T03:10:36.977Z,12.00
2018-09-27T03:11:40.623Z,12.00
2018-09-27T03:12:44.220Z,12.00
2018-09-27T03:13:47.750Z,12.00
2018-09-27T03:14:51.323Z,12.00
2018-09-27T03:15:54.941Z,12.00
2018-09-27T03:16:58.532Z,12.00
2018-09-27T03:18:02.140Z,12.00
2018-09-27T03:19:05.926Z,12.00
2018-09-27T03:20:09.500Z,12.00
2018-09-27T03:21:13.007Z,12.00
2018-09-27T03:22:16.617Z,12.00
2018-09-27T03:23:20.046Z,12.00
2018-09-27T03:24:23.583Z,12.10
2018-09-27T03:25:27.131Z,12.00
2018-09-27T03:26:30.767Z,12.00
2018-09-27T03:27:34.308Z,12.10
2018-09-27T03:28:37.923Z,12.10
2018-09-27T03:29:41.525Z,12.10
2018-09-27T03:30:45.129Z,12.20
2018-09-27T03:31:48.657Z,12.20
2018-09-27T03:32:52.188Z,12.20
2018-09-27T03:33:55.808Z,12.20
2018-09-27T03:34:59.385Z,12.20
2018-09-27T03:36:02.981Z,12.20
2018-09-27T03:37:06.625Z,12.30
2018-09-27T03:38:10.167Z,12.20
2018-09-27T03:39:13.687Z,12.30
2018-09-27T03:40:17.259Z,12.20
2018-09-27T03:41:20.690Z,12.30
2018-09-27T03:42:24.171Z,12.30
2018-09-27T03:43:27.778Z,12.30
2018-09-27T03:44:31.290Z,12.40
2018-09-27T03:45:34.763Z,12.30
2018-09-27T03:46:38.267Z,12.40
2018-09-27T03:47:41.841Z,12.40
2018-09-27T03:48:45.461Z,12.40
2018-09-27T03:49:48.929Z,12.40
2018-09-27T03:50:52.467Z,12.40
2018-09-27T03:51:55.943Z,12.50
2018-09-27T03:52:59.499Z,12.50
2018-09-27T03:54:02.970Z,12.40
2018-09-27T03:55:06.491Z,12.50
2018-09-27T03:56:10.073Z,12.50
2018-09-27T03:57:13.602Z,12.50
2018-09-27T03:58:17.102Z,12.50
2018-09-27T03:59:20.572Z,12.50
2018-09-27T04:00:24.119Z,12.50
2018-09-27T04:01:27.608Z,12.50
2018-09-27T04:02:31.133Z,12.50
2018-09-27T04:03:34.757Z,12.50
2018-09-27T04:04:38.463Z,12.50
2018-09-27T04:05:42.084Z,12.50
2018-09-27T04:06:45.617Z,12.50
2018-09-27T04:07:49.150Z,12.50
2018-09-27T04:08:52.782Z,12.50
2018-09-27T04:09:56.387Z,12.50
2018-09-27T04:11:00.019Z,12.50
2018-09-27T04:12:03.634Z,12.50
2018-09-27T04:13:07.142Z,12.50
2018-09-27T04:14:10.813Z,12.60
2018-09-27T04:15:14.322Z,12.50
2018-09-27T04:16:17.885Z,12.50
2018-09-27T04:17:21.496Z,12.50
2018-09-27T04:18:24.999Z,12.50
2018-09-27T04:19:28.496Z,12.50
2018-09-27T04:20:36.213Z,12.50
2018-09-27T04:21:39.790Z,12.50
2018-09-27T04:22:43.298Z,12.50
2018-09-27T04:23:46.898Z,12.50
2018-09-27T04:24:50.519Z,12.60
2018-09-27T04:25:54.048Z,12.50
2018-09-27T04:26:57.662Z,12.50
2018-09-27T04:28:01.266Z,12.50
2018-09-27T04:29:04.925Z,12.60
2018-09-27T04:30:08.651Z,12.60
2018-09-27T04:31:12.244Z,12.60
2018-09-27T04:32:15.826Z,12.60
2018-09-27T04:33:19.475Z,12.50
2018-09-27T04:34:23.076Z,12.50
2018-09-27T04:35:26.632Z,12.60
2018-09-27T04:36:30.194Z,12.50
2018-09-27T04:37:33.803Z,12.50
2018-09-27T04:38:37.427Z,12.60
2018-09-27T04:39:40.930Z,12.60
2018-09-27T04:40:44.399Z,12.60
2018-09-27T04:41:47.976Z,12.60
2018-09-27T04:42:51.621Z,12.60
2018-09-27T04:43:55.188Z,12.70
2018-09-27T04:44:58.770Z,12.70
2018-09-27T04:46:02.344Z,12.70
2018-09-27T04:47:05.903Z,12.70
2018-09-27T04:48:09.407Z,12.70
2018-09-27T04:49:13.380Z,12.80
2018-09-27T04:50:16.929Z,12.80
2018-09-27T04:51:20.463Z,12.70
2018-09-27T04:52:24.006Z,12.70
2018-09-27T04:53:27.541Z,12.70
2018-09-27T04:54:31.287Z,12.70
2018-09-27T04:55:34.865Z,12.70
2018-09-27T04:56:38.455Z,12.80
2018-09-27T04:57:42.136Z,12.80
2018-09-27T04:58:45.657Z,12.70
2018-09-27T04:59:49.269Z,12.70
2018-09-27T05:00:52.803Z,12.70
2018-09-27T05:01:56.248Z,12.70
2018-09-27T05:02:59.798Z,12.70
2018-09-27T05:04:03.323Z,12.60
2018-09-27T05:05:06.845Z,12.60
2018-09-27T05:06:10.367Z,12.70
2018-09-27T05:07:13.879Z,12.60
2018-09-27T05:08:17.416Z,12.60
2018-09-27T05:09:20.990Z,12.60
2018-09-27T05:10:24.536Z,12.60
2018-09-27T05:11:28.104Z,12.60
2018-09-27T05:12:31.584Z,12.60
2018-09-27T05:13:35.067Z,12.60
2018-09-27T05:14:38.638Z,12.60
2018-09-27T05:15:42.269Z,12.60
2018-09-27T05:16:45.734Z,12.50
2018-09-27T05:17:49.241Z,12.50
2018-09-27T05:18:52.747Z,12.50
2018-09-27T05:19:56.224Z,12.50
2018-09-27T05:20:59.752Z,12.50
2018-09-27T05:22:03.271Z,12.50
2018-09-27T05:23:06.729Z,12.50
2018-09-27T05:24:10.232Z,12.50
2018-09-27T05:25:13.750Z,12.40
2018-09-27T05:26:17.310Z,12.50
2018-09-27T05:27:20.969Z,12.40
2018-09-27T05:28:24.276Z,12.40
2018-09-27T05:29:27.728Z,12.40
2018-09-27T05:30:31.206Z,12.40
2018-09-27T05:31:34.822Z,12.40
2018-09-27T05:32:38.290Z,12.40
2018-09-27T05:33:41.787Z,12.40
2018-09-27T05:34:45.349Z,12.40
2018-09-27T05:35:48.926Z,12.40
2018-09-27T05:36:52.554Z,12.40
2018-09-27T05:37:56.039Z,12.50
2018-09-27T05:38:59.607Z,12.50
2018-09-27T05:40:03.194Z,12.50
2018-09-27T05:41:06.807Z,12.50
2018-09-27T05:42:10.330Z,12.40
2018-09-27T05:43:13.852Z,12.40
2018-09-27T05:44:17.393Z,12.40
2018-09-27T05:45:21.104Z,12.40
2018-09-27T05:46:24.655Z,12.40
2018-09-27T05:47:28.259Z,12.40
2018-09-27T05:48:31.773Z,12.50
2018-09-27T05:49:35.282Z,12.40
2018-09-27T05:50:38.794Z,12.50
2018-09-27T05:51:42.384Z,12.40
2018-09-27T05:52:45.896Z,12.40
2018-09-27T05:53:50.503Z,12.40
2018-09-27T05:54:54.048Z,12.40
2018-09-27T05:55:57.661Z,12.40
2018-09-27T05:57:01.253Z,12.30
2018-09-27T05:58:04.861Z,12.40
2018-09-27T05:59:08.504Z,12.40
2018-09-27T06:00:12.059Z,12.30
2018-09-27T06:01:15.595Z,12.30
2018-09-27T06:02:19.115Z,12.30
2018-09-27T06:03:22.910Z,12.30
2018-09-27T06:04:26.489Z,12.30
2018-09-27T06:05:30.137Z,12.30
2018-09-27T06:06:33.726Z,12.30
2018-09-27T06:07:37.459Z,12.30
2018-09-27T06:08:41.023Z,12.30
2018-09-27T06:09:45.471Z,12.30
2018-09-27T06:10:49.051Z,12.30
2018-09-27T06:11:52.624Z,12.30
2018-09-27T06:12:56.222Z,12.40
2018-09-27T06:13:59.746Z,12.30
2018-09-27T06:15:03.370Z,12.30
2018-09-27T06:16:07.559Z,12.30
2018-09-27T06:17:11.157Z,12.30
2018-09-27T06:18:15.733Z,12.30
2018-09-27T06:19:19.390Z,12.30
2018-09-27T06:20:23.103Z,12.40
2018-09-27T06:21:26.755Z,12.40
2018-09-27T06:22:30.390Z,12.50
2018-09-27T06:23:34.062Z,12.40
2018-09-27T06:24:37.794Z,12.50
2018-09-27T06:25:41.393Z,12.50
2018-09-27T06:26:45.056Z,12.50
2018-09-27T06:27:48.663Z,12.50
2018-09-27T06:28:52.447Z,12.50
2018-09-27T06:29:56.338Z,12.50
2018-09-27T06:31:00.163Z,12.50
2018-09-27T06:32:03.861Z,12.50
2018-09-27T06:33:07.398Z,12.50
2018-09-27T06:34:11.008Z,12.60
2018-09-27T06:35:14.607Z,12.60
2018-09-27T06:36:18.173Z,12.70
2018-09-27T06:37:21.802Z,12.70
2018-09-27T06:38:25.413Z,12.70
2018-09-27T06:39:28.971Z,12.70
2018-09-27T06:40:32.529Z,12.70
2018-09-27T06:41:36.138Z,12.70
2018-09-27T06:42:39.750Z,12.70
2018-09-27T06:43:43.473Z,12.70
2018-09-27T06:44:47.224Z,12.60
2018-09-27T06:45:50.903Z,12.60
2018-09-27T06:46:54.530Z,12.70
2018-09-27T06:47:58.264Z,12.70
2018-09-27T06:49:01.995Z,12.70
2018-09-27T06:50:05.582Z,12.70
2018-09-27T06:51:09.267Z,12.70
2018-09-27T06:52:12.914Z,12.70
2018-09-27T06:53:16.489Z,12.70
2018-09-27T06:54:20.057Z,12.80
2018-09-27T06:55:23.922Z,12.80
2018-09-27T06:56:27.182Z,12.80
2018-09-27T06:57:30.748Z,12.80
2018-09-27T06:58:34.318Z,12.80
2018-09-27T06:59:38.001Z,12.80
2018-09-27T07:00:41.485Z,12.80
2018-09-27T07:01:46.131Z,12.80
2018-09-27T07:02:49.810Z,12.80
2018-09-27T07:03:53.451Z,12.80
2018-09-27T07:04:57.095Z,12.80
2018-09-27T07:06:01.159Z,12.80
2018-09-27T07:07:06.016Z,12.80
2018-09-27T07:08:09.554Z,12.80
2018-09-27T07:09:13.918Z,12.80
2018-09-27T07:10:17.535Z,12.80
2018-09-27T07:11:21.116Z,12.80
2018-09-27T07:12:25.088Z,12.80
2018-09-27T07:13:28.607Z,12.80
2018-09-27T07:14:32.213Z,12.90
2018-09-27T07:15:35.784Z,12.90
2018-09-27T07:16:39.377Z,12.90
2018-09-27T07:17:43.091Z,12.80
2018-09-27T07:18:46.853Z,12.90
2018-09-27T07:19:50.444Z,12.90
2018-09-27T07:20:54.030Z,12.90
2018-09-27T07:21:57.932Z,12.90
2018-09-27T07:23:01.689Z,12.90
2018-09-27T07:24:05.250Z,12.90
2018-09-27T07:25:08.865Z,13.00
2018-09-27T07:26:12.507Z,13.00
2018-09-27T07:27:16.890Z,13.00
2018-09-27T07:28:20.951Z,13.10
2018-09-27T07:29:24.686Z,13.00
2018-09-27T07:30:28.410Z,13.00
2018-09-27T07:31:32.169Z,13.10
2018-09-27T07:32:35.974Z,13.10
2018-09-27T07:33:39.696Z,13.20
2018-09-27T07:34:43.523Z,13.30
2018-09-27T07:35:47.284Z,13.30
2018-09-27T07:36:51.011Z,13.30
2018-09-27T07:37:54.777Z,13.40
2018-09-27T07:38:58.506Z,13.40
2018-09-27T07:40:02.234Z,13.50
2018-09-27T07:41:05.914Z,13.50
2018-09-27T07:42:09.837Z,13.60
2018-09-27T07:43:13.554Z,13.70
2018-09-27T07:44:17.269Z,13.70
2018-09-27T07:45:21.015Z,13.70
2018-09-27T07:46:24.737Z,13.70
2018-09-27T07:47:28.528Z,13.70
2018-09-27T07:48:32.441Z,13.80
2018-09-27T07:49:36.185Z,13.80
2018-09-27T07:50:40.013Z,13.90
2018-09-27T07:51:43.756Z,13.80
2018-09-27T07:52:47.682Z,13.90
2018-09-27T07:53:51.523Z,13.90
2018-09-27T07:54:55.539Z,14.00
2018-09-27T07:55:59.161Z,14.00
2018-09-27T07:57:02.982Z,14.10
2018-09-27T07:58:07.030Z,14.20
2018-09-27T07:59:10.742Z,14.20
2018-09-27T08:00:14.421Z,14.20
2018-09-27T08:01:18.200Z,14.20
2018-09-27T08:02:21.850Z,14.20
2018-09-27T08:03:25.491Z,14.30
2018-09-27T08:04:29.227Z,14.30
2018-09-27T08:05:33.022Z,14.30
2018-09-27T08:06:36.726Z,14.40
2018-09-27T08:07:40.449Z,14.40
2018-09-27T08:08:44.280Z,14.40
2018-09-27T08:09:48.116Z,14.50
2018-09-27T08:10:52.011Z,14.50
2018-09-27T08:11:55.867Z,14.40
2018-09-27T08:12:59.631Z,14.40
2018-09-27T08:14:03.394Z,14.50
2018-09-27T08:15:07.190Z,14.50
2018-09-27T08:16:10.972Z,14.50
2018-09-27T08:17:14.842Z,14.50
2018-09-27T08:18:18.507Z,14.50
2018-09-27T08:19:22.391Z,14.50
2018-09-27T08:20:26.310Z,14.60
2018-09-27T08:21:29.900Z,14.60
2018-09-27T08:22:33.789Z,14.60
2018-09-27T08:23:37.802Z,14.60
2018-09-27T08:24:41.554Z,14.70
2018-09-27T08:25:45.358Z,14.80
2018-09-27T08:26:49.080Z,14.90
2018-09-27T08:27:52.853Z,14.90
2018-09-27T08:28:56.473Z,14.90
2018-09-27T08:30:00.223Z,15.00
2018-09-27T08:31:03.933Z,15.00
2018-09-27T08:32:07.730Z,15.10
2018-09-27T08:33:11.477Z,15.10
2018-09-27T08:34:15.099Z,15.20
2018-09-27T08:35:18.949Z,15.20
2018-09-27T08:36:22.582Z,15.30
2018-09-27T08:37:26.290Z,15.40
2018-09-27T08:38:30.032Z,15.50
2018-09-27T08:39:33.723Z,15.50
2018-09-27T08:40:37.390Z,15.50
2018-09-27T08:41:41.238Z,15.60
2018-09-27T08:42:44.983Z,15.70
2018-09-27T08:43:48.705Z,15.80
2018-09-27T08:44:52.575Z,15.90
2018-09-27T08:45:56.343Z,16.10
2018-09-27T08:47:00.143Z,16.10
2018-09-27T08:48:03.888Z,16.50
2018-09-27T08:49:07.716Z,17.50
2018-09-27T08:50:11.548Z,17.60
2018-09-27T08:51:15.234Z,18.50
2018-09-27T08:52:18.947Z,19.40
2018-09-27T08:53:22.741Z,20.50
2018-09-27T09:16:37.938Z,23.30
2018-09-27T09:17:41.679Z,23.40
2018-09-27T09:18:45.500Z,23.90
2018-09-27T09:19:49.227Z,24.40
2018-09-27T09:20:53.129Z,25.10
2018-09-27T09:21:56.820Z,25.60
2018-09-27T09:23:00.507Z,25.80
2018-09-27T09:24:04.212Z,26.20
2018-09-27T09:25:08.034Z,26.20
2018-09-27T09:26:11.840Z,26.30
2018-09-27T09:27:15.525Z,26.60
2018-09-27T09:28:19.184Z,26.80
2018-09-27T09:29:22.853Z,27.00
2018-09-27T09:30:26.603Z,27.30
2018-09-27T09:31:30.249Z,27.50
2018-09-27T09:32:34.108Z,28.10
2018-09-27T09:33:37.905Z,28.50
2018-09-27T09:34:41.649Z,28.50
2018-09-27T09:35:45.512Z,28.30
2018-09-27T09:36:49.331Z,27.60
2018-09-27T09:37:53.178Z,27.40
2018-09-27T09:38:56.987Z,27.50
2018-09-27T09:40:00.792Z,27.80
2018-09-27T09:41:04.518Z,28.00
2018-09-27T09:42:08.365Z,28.20
2018-09-27T09:43:12.126Z,28.40
2018-09-27T09:44:15.876Z,28.20
2018-09-27T09:45:19.752Z,27.90
2018-09-27T09:46:23.645Z,27.90
2018-09-27T09:47:27.782Z,28.00
2018-09-27T09:48:31.617Z,28.00
2018-09-27T09:49:35.393Z,28.00
2018-09-27T09:50:39.080Z,28.00
2018-09-27T09:51:42.852Z,28.00
2018-09-27T09:52:46.612Z,28.20
2018-09-27T09:53:50.318Z,28.30
2018-09-27T09:54:53.970Z,28.30
2018-09-27T09:55:57.776Z,28.40
2018-09-27T09:57:01.501Z,28.40
2018-09-27T09:58:05.231Z,28.40
2018-09-27T09:59:09.126Z,28.60
2018-09-27T10:00:12.833Z,28.50
2018-09-27T10:01:16.626Z,28.30
2018-09-27T10:02:20.503Z,28.10
2018-09-27T10:03:24.316Z,28.10
2018-09-27T10:04:27.994Z,28.20
2018-09-27T10:05:31.803Z,28.20
2018-09-27T10:06:35.622Z,28.00
2018-09-27T10:07:39.443Z,28.00
2018-09-27T10:08:43.131Z,28.00
2018-09-27T10:09:46.874Z,28.10
2018-09-27T10:10:50.615Z,27.90
2018-09-27T10:11:54.377Z,28.00
2018-09-27T10:12:58.094Z,28.00
2018-09-27T10:14:01.811Z,28.00
2018-09-27T10:15:05.679Z,28.20
2018-09-27T10:16:09.270Z,28.30
2018-09-27T10:17:12.915Z,28.70
2018-09-27T10:18:16.558Z,28.90
2018-09-27T10:19:20.287Z,28.80
2018-09-27T10:20:23.925Z,28.80
2018-09-27T10:21:27.581Z,28.90
2018-09-27T10:22:31.140Z,28.60
2018-09-27T10:23:34.756Z,28.40
2018-09-27T10:24:38.379Z,28.00
2018-09-27T10:25:41.938Z,27.80
2018-09-27T10:26:45.522Z,27.80
2018-09-27T10:27:49.240Z,28.00
2018-09-27T10:28:52.924Z,28.20
2018-09-27T10:29:56.600Z,28.20
2018-09-27T10:31:00.402Z,28.10
2018-09-27T10:32:03.963Z,28.00
2018-09-27T10:33:07.572Z,27.50
2018-09-27T10:34:11.230Z,27.60
2018-09-27T10:35:14.988Z,27.60
2018-09-27T10:36:18.668Z,27.70
2018-09-27T10:37:22.420Z,27.80
2018-09-27T10:38:26.549Z,27.80
2018-09-27T10:39:30.247Z,27.60
2018-09-27T10:40:33.927Z,27.10
2018-09-27T10:41:37.599Z,26.90
2018-09-27T10:42:41.250Z,26.80
2018-09-27T10:43:44.869Z,26.70
2018-09-27T10:44:48.469Z,26.90
2018-09-27T10:45:52.092Z,26.80
2018-09-27T10:46:55.804Z,26.70
2018-09-27T10:47:59.527Z,26.50
2018-09-27T10:49:03.106Z,26.50
2018-09-27T10:50:07.000Z,26.40
2018-09-27T10:51:10.605Z,26.10
2018-09-27T10:52:14.307Z,25.80
2018-09-27T10:53:17.926Z,25.70
2018-09-27T10:54:21.522Z,25.40
2018-09-27T10:55:25.108Z,25.00
2018-09-27T10:56:28.750Z,24.80
2018-09-27T10:57:32.478Z,24.70
2018-09-27T10:58:36.194Z,24.60
2018-09-27T10:59:39.830Z,24.80
2018-09-27T11:00:43.485Z,24.60
2018-09-27T11:01:47.108Z,24.40
2018-09-27T11:02:51.274Z,24.30
2018-09-27T11:03:54.927Z,24.30
2018-09-27T11:04:58.667Z,24.10
2018-09-27T11:06:02.299Z,24.10
2018-09-27T11:07:06.061Z,24.10
2018-09-27T11:08:09.756Z,24.10
2018-09-27T11:09:13.422Z,23.80
2018-09-27T11:10:17.061Z,23.80
2018-09-27T11:11:20.785Z,23.90
2018-09-27T11:12:24.388Z,23.90
2018-09-27T11:13:28.129Z,24.10
2018-09-27T11:14:31.731Z,24.20
2018-09-27T11:15:35.319Z,24.10
2018-09-27T11:16:38.954Z,24.00
2018-09-27T11:17:42.517Z,24.10
2018-09-27T11:18:46.189Z,24.00
2018-09-27T11:19:49.772Z,23.90
2018-09-27T11:20:53.440Z,24.10
2018-09-27T11:21:57.113Z,24.10
2018-09-27T11:23:00.888Z,24.10
2018-09-27T11:24:04.459Z,24.00
2018-09-27T11:25:08.220Z,23.90
2018-09-27T11:26:11.773Z,24.00
2018-09-27T11:27:15.536Z,23.90
2018-09-27T11:28:19.181Z,23.80
2018-09-27T11:29:28.234Z,24.00
2018-09-27T11:30:33.489Z,24.10
2018-09-27T11:31:42.463Z,24.30
2018-09-27T11:32:46.456Z,24.40
2018-09-27T11:33:50.125Z,24.60
2018-09-27T11:34:53.744Z,24.80
2018-09-27T11:35:57.408Z,24.90
2018-09-27T11:37:00.975Z,25.00
2018-09-27T11:38:04.667Z,25.00
2018-09-27T11:39:09.232Z,24.90
2018-09-27T11:40:12.801Z,25.00
2018-09-27T11:41:16.597Z,25.20
2018-09-27T11:42:20.746Z,25.50
2018-09-27T11:43:24.290Z,25.60
2018-09-27T11:44:27.974Z,25.60
2018-09-27T11:45:31.666Z,25.70
2018-09-27T11:46:35.284Z,25.90
2018-09-27T11:47:38.971Z,26.20
2018-09-27T11:48:42.570Z,26.30
2018-09-27T11:49:46.405Z,26.50
2018-09-27T11:50:49.859Z,26.60
2018-09-27T11:51:53.587Z,26.70
2018-09-27T11:52:57.155Z,26.80
2018-09-27T11:54:00.920Z,26.80
2018-09-27T11:55:04.717Z,26.90
2018-09-27T11:56:08.385Z,26.80
2018-09-27T11:57:11.976Z,26.80
2018-09-27T11:58:15.626Z,26.50
2018-09-27T11:59:19.645Z,26.40
2018-09-27T12:00:23.213Z,26.20
2018-09-27T12:01:26.850Z,26.30
2018-09-27T12:02:30.522Z,26.40
2018-09-27T12:03:34.230Z,26.20
2018-09-27T12:04:37.851Z,26.10
2018-09-27T12:05:41.483Z,26.20
2018-09-27T12:06:45.169Z,26.20
2018-09-27T12:07:48.813Z,26.30
2018-09-27T12:08:52.401Z,26.50
2018-09-27T12:09:56.172Z,26.50
2018-09-27T12:10:59.867Z,26.60
2018-09-27T12:12:03.615Z,26.60
2018-09-27T12:13:07.191Z,26.70
2018-09-27T12:14:11.352Z,26.80
2018-09-27T12:15:15.034Z,26.90
2018-09-27T12:16:18.827Z,27.00
2018-09-27T12:17:22.626Z,27.20
2018-09-27T12:18:26.425Z,27.30
2018-09-27T12:19:30.247Z,27.30
2018-09-27T12:20:34.121Z,27.30
2018-09-27T12:21:37.775Z,27.60
2018-09-27T12:22:41.530Z,27.70
2018-09-27T12:23:45.332Z,27.70
2018-09-27T12:24:49.038Z,27.80
2018-09-27T12:25:52.892Z,27.90
2018-09-27T12:26:56.612Z,28.10
2018-09-27T12:28:00.324Z,28.30
2018-09-27T12:29:04.063Z,28.50
2018-09-27T12:30:07.700Z,28.70
2018-09-27T12:31:11.336Z,28.70
2018-09-27T12:32:14.936Z,28.80
2018-09-27T12:33:18.632Z,28.90
2018-09-27T12:34:22.314Z,28.90
2018-09-27T12:35:26.003Z,28.60
2018-09-27T12:36:29.861Z,28.60
2018-09-27T12:37:33.460Z,28.60
2018-09-27T12:38:37.114Z,28.70
2018-09-27T12:39:40.781Z,28.70
2018-09-27T12:40:45.441Z,28.70
2018-09-27T12:41:49.169Z,28.60
2018-09-27T12:42:52.865Z,28.80
2018-09-27T12:43:56.471Z,28.80
2018-09-27T12:45:00.166Z,28.80
2018-09-27T12:46:03.844Z,28.90
2018-09-27T12:47:07.626Z,28.90
2018-09-27T12:48:11.331Z,28.80
2018-09-27T12:49:14.961Z,28.80
2018-09-27T12:50:18.572Z,28.70
2018-09-27T12:51:22.439Z,28.70
2018-09-27T12:52:26.152Z,28.80
2018-09-27T12:53:29.721Z,29.00
2018-09-27T12:54:33.361Z,29.10
2018-09-27T12:55:37.330Z,29.20
2018-09-27T12:56:40.984Z,29.10
2018-09-27T12:57:44.725Z,29.30
2018-09-27T12:58:48.345Z,29.40
2018-09-27T12:59:52.001Z,29.40
2018-09-27T13:00:55.593Z,29.50
2018-09-27T13:01:59.470Z,29.30
2018-09-27T13:03:03.236Z,29.30
2018-09-27T13:04:07.000Z,29.00
2018-09-27T13:05:10.645Z,29.10
2018-09-27T13:06:14.248Z,29.10
2018-09-27T13:07:17.911Z,29.10
2018-09-27T13:08:21.707Z,29.20
2018-09-27T13:09:25.518Z,29.30
2018-09-27T13:10:28.968Z,29.40
2018-09-27T13:11:32.460Z,29.60
2018-09-27T13:12:36.149Z,29.80
2018-09-27T13:13:39.785Z,29.50
2018-09-27T13:14:43.493Z,29.80
2018-09-27T13:15:47.036Z,29.90
2018-09-27T13:16:50.712Z,30.00
2018-09-27T13:17:54.404Z,30.10
2018-09-27T13:18:58.273Z,30.00
2018-09-27T13:20:02.082Z,30.20
2018-09-27T13:21:05.844Z,30.30
2018-09-27T13:22:09.536Z,30.40
2018-09-27T13:23:13.375Z,30.20
2018-09-27T13:24:17.060Z,30.30
2018-09-27T13:25:20.714Z,30.20
2018-09-27T13:26:24.365Z,29.90
2018-09-27T13:27:28.005Z,29.90
2018-09-27T13:28:31.726Z,29.90
2018-09-27T13:29:35.709Z,30.00
2018-09-27T13:30:39.299Z,29.90
2018-09-27T13:31:42.943Z,29.90
2018-09-27T13:32:46.764Z,30.10
2018-09-27T13:33:50.595Z,30.30
2018-09-27T13:34:54.301Z,30.30
2018-09-27T13:35:58.008Z,30.30
2018-09-27T13:37:01.796Z,30.20
2018-09-27T13:38:05.481Z,30.20
2018-09-27T13:39:10.268Z,30.10
2018-09-27T13:40:13.844Z,30.00
2018-09-27T13:41:17.401Z,30.00
2018-09-27T13:42:21.157Z,30.10
2018-09-27T13:43:25.143Z,29.90
2018-09-27T13:44:28.856Z,30.00
2018-09-27T13:45:32.505Z,30.10
2018-09-27T13:46:36.579Z,30.30
2018-09-27T13:47:40.350Z,30.20
2018-09-27T13:48:45.093Z,30.40
2018-09-27T13:49:48.972Z,30.30
2018-09-27T13:50:52.951Z,30.10
2018-09-27T13:51:56.728Z,29.90
2018-09-27T13:53:00.461Z,29.60
2018-09-27T13:54:04.325Z,29.50
2018-09-27T13:55:08.171Z,29.60
2018-09-27T13:56:11.904Z,29.80
2018-09-27T13:57:15.603Z,29.80
2018-09-27T13:58:19.292Z,29.90
2018-09-27T13:59:23.112Z,30.00
2018-09-27T14:00:26.833Z,29.80
2018-09-27T14:01:30.552Z,29.60
2018-09-27T14:02:34.286Z,29.50